HOURLY OBS INDEX

031

North Coast - Barron

CAIRNS AERO

Site: 031011
Alt: 2.2m
5km NNW of CAIRNS


  Time     Wind        Temp  DP   Baro     Rain since   Rain past  Vis(m), Cloud(base in m), Weather
  local        km/h                         9am  last   hr   10m    
Mon 08:00  SSE 26/ 37  20.2 13.6  1019.6    0.0   0.0   0.0   0.0   10000|SC2010 
Mon 08:30    S 28/ 39  20.8 13.7  1019.8    0.0   0.0   0.0   0.0   10000 
Mon 09:00  SSE 30/ 41  21.6 13.5  1020.2    0.0   0.0   0.0   0.0   10000 
Mon 09:30  SSE 28/ 39  22.4 12.9  1020.2    0.0   0.0   0.0   0.0   10000 
Mon 10:00  SSE 26/ 35  22.6 12.0  1020.2    0.0   0.0   0.0   0.0   10000 
Mon 10:30  SSE 26/ 37  23.3 11.7  1020.0    0.0   0.0   0.0   0.0   10000 
Mon 11:00   SE 26/ 35  24.1 13.3  1019.8    0.0   0.0   0.0   0.0   10000 
Mon 11:30  SSE 20/ 28  23.9 13.2  1019.5    0.0   0.0   0.0   0.0   10000 
Mon 12:00  SSE 20/ 33  24.5 13.7  1019.3    0.0   0.0   0.0   0.0   10000 
Mon 12:30   SE 33/ 46  24.9 14.1  1019.1    0.0   0.0   0.0   0.0   10000 
Mon 13:00   SE 32/ 41  24.5 13.4  1018.7    0.0   0.0   0.0   0.0   10000 

CAIRNS RACECOURSE

Site: 031222
Alt: 4.1m
km of


  Time     Wind        Temp  DP   Baro     Rain since   Rain past  Vis(m), Cloud(base in m), Weather
  local        km/h                         9am  last   hr   10m    
Mon 08:00  SSE 17/ 24  19.6 14.0  ------    0.0   0.0   0.0   0.0   10000 
Mon 08:30    S 19/ 26  20.5 14.4  ------    0.0   0.0   0.0   0.0   10000 
Mon 09:00  SSE 17/ 28  21.2 14.1  ------    0.0   0.0   0.0   0.0   10000 
Mon 09:30  SSE 24/ 35  22.2 12.7  ------    0.0   0.0   0.0   0.0   10000 
Mon 10:00  SSE 24/ 39  22.8 11.8  ------    0.0   0.0   0.0   0.0   10000 
Mon 10:30  SSE 22/ 35  23.2 12.5  ------    0.0   0.0   0.0   0.0   10000 
Mon 11:00   SE 24/ 39  23.2 12.8  ------    0.0   0.0   0.0   0.0   10000 
Mon 11:30   SE 22/ 37  23.9 14.0  ------    0.0   0.0   0.0   0.0   10000 
Mon 12:00  SSE 22/ 33  24.0 13.5  ------    0.0   0.0   0.0   0.0   10000 
Mon 12:30  SSE 24/ 39  24.2 13.1  ------    0.0   0.0   0.0   0.0   10000 
Mon 13:00    S 24/ 33  24.4 13.6  ------    0.0   0.0   0.0   0.0   10000 

CAPE FLATTERY

Site: 031213
Alt: 18.5m
58km N of COOKTOWN


  Time     Wind        Temp  DP   Baro     Rain since   Rain past  Vis(m), Cloud(base in m), Weather
  local        km/h                         9am  last   hr   10m    
Mon 08:00   SE 32/ 45  23.6 16.6  1017.6    0.0   0.0   0.0   0.0   ----- 
Mon 08:19   SE 28/ 46  24.8 17.3  1018.1    0.0   0.0  ----   0.0   ----- 
Mon 08:30  SSE 35/ 48  23.5 18.6  1018.2    0.0   0.0   0.0   0.0   ----- 
Mon 09:00  SSE 33/ 46  23.6 19.1  1018.4    0.0   0.0   0.0   0.0   ----- 
Mon 09:30  SSE 35/ 45  24.1 19.4  1018.4    0.0   0.0   0.0   0.0   ----- 
Mon 10:00  SSE 35/ 48  25.0 17.7  1018.3    0.0   0.0   0.0   0.0   ----- 
Mon 10:30  SSE 37/ 54  24.8 18.3  1018.5    0.0   0.0   0.0   0.0   ----- 
Mon 11:00  SSE 41/ 56  25.8 18.5  1018.4    0.0   0.0   0.0   0.0   ----- 
Mon 11:25  SSE 39/ 58  25.5 17.9  1018.3    0.0   0.0  ----   0.0   ----- 
Mon 11:30  SSE 39/ 58  25.3 18.2  1018.3    0.0   0.0   0.0   0.0   ----- 
Mon 12:00  SSE 39/ 54  25.1 17.8  1018.1    0.0   0.0   0.0   0.0   ----- 
Mon 12:30  SSE 41/ 52  24.9 17.9  1017.8    0.0   0.0   0.0   0.0   ----- 
Mon 13:00  SSE 41/ 56  25.2 18.2  1017.5    0.0   0.0   0.0   0.0   ----- 

COOKTOWN AIRPORT

Site: 031209
Alt: 4.8m
8km WNW of COOKTOWN


  Time     Wind        Temp  DP   Baro     Rain since   Rain past  Vis(m), Cloud(base in m), Weather
  local        km/h                         9am  last   hr   10m    
Mon 08:00   SE 24/ 39  22.1 17.7  1018.2    0.0   0.0   0.0   0.0   10000 
Mon 08:30   SE 24/ 37  22.6 17.5  1018.3    0.0   0.0   0.0   0.0   10000 
Mon 09:00   SE 28/ 52  22.6 17.1  1018.7    0.0   0.0   0.0   0.0   10000 
Mon 09:30   SE 33/ 59  22.8 17.3  1018.8    0.0   0.0   0.0   0.0   10000|SC 750 SC1710 
Mon 10:00   SE 28/ 46  23.5 17.0  1019.0    0.0   0.0   0.0   0.0   10000 
Mon 10:30   SE 35/ 58  23.4 16.2  1018.9    0.0   0.0   0.0   0.0   10000 
Mon 11:00  SSE 24/ 45  24.2 16.2  1019.0    0.0   0.0   0.0   0.0   10000 
Mon 11:03   SE 28/ 50  24.0 16.0  1019.0    0.0   0.0  ----   0.0   10000 
Mon 11:30   SE 28/ 43  25.0 16.4  1018.7    0.0   0.0   0.0   0.0   10000 
Mon 11:40   SE 28/ 46  24.6 16.3  1018.7    0.0   0.0  ----   0.0   10000 
Mon 12:00   SE 28/ 46  24.8 16.0  1018.5    0.0   0.0   0.0   0.0   10000|SC1680 
Mon 12:30   SE 26/ 43  24.9 16.1  1018.2    0.0   0.0   0.0   0.0   10000 
Mon 12:35   SE 30/ 48  24.9 15.8  1018.1    0.0   0.0  ----   0.0   10000 
Mon 13:00   SE 30/ 45  24.1 15.9  1018.0    0.0   0.0   0.0   0.0   10000|SC1890 

LOW ISLES LIGHTHOUSE

Site: 031037
Alt: 2.9m
63km NNW of CAIRNS


  Time     Wind        Temp  DP   Baro     Rain since   Rain past  Vis(m), Cloud(base in m), Weather
  local        km/h                         9am  last   hr   10m    
Mon 08:00   SE 46/ 58  21.6 16.6  1019.4    0.0   0.0   0.0   0.0   ----- 
Mon 08:30   SE 54/ 61  21.8 16.3  1019.7    0.0   0.0   0.0   0.0   ----- 
Mon 09:00   SE 54/ 63  22.2 16.0  1020.2    0.0   0.0   0.0   0.0   ----- 
Mon 09:30   SE 50/ 58  22.0 16.1  1020.3    0.0   0.0   0.0   0.0   ----- 
Mon 10:00   SE 50/ 59  21.9 14.5  1020.5    0.0   0.0   0.0   0.0   ----- 
Mon 10:30   SE 48/ 56  22.1 14.7  1020.4    0.0   0.0   0.0   0.0   ----- 
Mon 11:00   SE 45/ 54  22.2 14.8  1020.2    0.0   0.0   0.0   0.0   ----- 
Mon 11:30   SE 48/ 56  22.3 14.9  1020.0    0.0   0.0   0.0   0.0   ----- 
Mon 12:00   SE 46/ 54  22.6 16.2  1019.9    0.0   0.0   0.0   0.0   ----- 
Mon 12:30   SE 45/ 54  22.8 16.4  1019.6    0.0   0.0   0.0   0.0   ----- 
Mon 13:00   SE 43/ 50  22.9 16.4  1019.2    0.0   0.0   0.0   0.0   ----- 

MAREEBA AIRPORT

Site: 031210
Alt: 471.9m
40km WSW of CAIRNS


  Time     Wind        Temp  DP   Baro     Rain since   Rain past  Vis(m), Cloud(base in m), Weather
  local        km/h                         9am  last   hr   10m    
Mon 08:00  SSE 22/ 32  16.5 12.5  1021.1    0.0   0.0   0.0   0.0   10000|BR 600 
Mon 08:30  SSE 20/ 30  17.4 12.5  1021.3    0.0   0.0   0.0   0.0   10000|SC 600 
Mon 08:34   SE 20/ 33  17.7 12.4  1021.3    0.0   0.0  ----   0.0   10000|SC 600 
Mon 08:44   SE 24/ 35  18.0 12.5  1021.4    0.0   0.0  ----   0.0   10000|BR 600 
Mon 09:00  SSE 26/ 41  18.4 12.2  1021.5    0.0   0.0   0.0   0.0   10000|BR 660 
Mon 09:30   SE 28/ 41  18.6 11.4  1021.6    0.0   0.0   0.0   0.0   10000|BR 660 
Mon 09:47   SE 26/ 39  19.4 11.7  1021.6    0.0   0.0  ----   0.0   10000|SC 720 
Mon 10:00   SE 30/ 39  19.6 11.4  1021.6    0.0   0.0   0.0   0.0   10000 
Mon 10:30  SSE 28/ 35  20.3 11.5  1021.5    0.0   0.0   0.0   0.0   10000 
Mon 11:00  SSE 24/ 35  20.9 11.0  1021.3    0.0   0.0   0.0   0.0   10000 
Mon 11:30  SSE 22/ 32  21.2 10.7  1021.1    0.0   0.0   0.0   0.0   10000 
Mon 12:00  SSE 22/ 30  22.0 10.5  1020.6    0.0   0.0   0.0   0.0   10000 
Mon 12:30  SSE 24/ 33  22.7 11.1  1020.3    0.0   0.0   0.0   0.0   10000 
Mon 13:00  SSE 24/ 32  22.6 11.0  1019.9    0.0   0.0   0.0   0.0   10000|SC1350